^^
Lisbon, NH - Weather Station Historical Data
Daily Summary for October 21, 2021 Units:  Metric    English   Both
Daily Weekly Monthly Yearly
  High: Low: Average:
Temperature: 14.8 °C 5.9 °C 10.3 °C
Dew Point: 14.8 °C 5.9 °C 10.2 °C
Humidity: 100% 86.3% 99%
Wind Speed: 3.9km/h 0km/h 0.3km/h
Wind Gust: 8km/h - -
Wind- - ESE
Pressure: 1014.1 hPa 1008.4 hPa -
Precipitation: 2.54 mm    
 
 
Tabular Data for October 21, 2021
Time Temperature Dew Point Pressure Wind Wind Speed Wind Gust Humidity Rainfall Rate (Hourly) solar
00:04 8.3 °C 8.3 °C 1012.8 hPa Calm     100% 0 mm 0 W/m2
00:09 8.2 °C 8.2 °C 1012.8 hPa Calm     100% 0 mm 0 W/m2
00:14 8.2 °C 8.2 °C 1012.8 hPa Calm     100% 0 mm 0 W/m2
00:19 8.1 °C 8.1 °C 1012.8 hPa Calm     100% 0 mm 0 W/m2
00:24 8.1 °C 8.1 °C 1012.8 hPa Calm     100% 0 mm 0 W/m2
00:29 8 °C 8 °C 1012.8 hPa Calm     100% 0 mm 0 W/m2
00:34 8 °C 8 °C 1012.8 hPa Calm     100% 0 mm 0 W/m2
00:39 8 °C 8 °C 1012.8 hPa Calm     100% 0 mm 0 W/m2
00:44 8.1 °C 8.1 °C 1013.1 hPa Calm     100% 0 mm 0 W/m2
00:49 8.1 °C 8.1 °C 1013.1 hPa Calm     100% 0 mm 0 W/m2
00:54 8.1 °C 8.1 °C 1013.1 hPa Calm     100% 0 mm 0 W/m2
00:59 8.1 °C 8.1 °C 1013.1 hPa Calm     100% 0 mm 0 W/m2
01:04 8.1 °C 8.1 °C 1013.1 hPa Calm     100% 0 mm 0 W/m2
01:09 8.1 °C 8.1 °C 1013.1 hPa Calm     100% 0 mm 0 W/m2
01:14 8.1 °C 8.1 °C 1013.1 hPa Calm     100% 0 mm 0 W/m2
01:19 8.1 °C 8.1 °C 1012.8 hPa Calm     100% 0 mm 0 W/m2
01:24 8 °C 8 °C 1012.8 hPa Calm     100% 0 mm 0 W/m2
01:29 7.9 °C 7.9 °C 1012.8 hPa Calm     100% 0 mm 0 W/m2
01:34 7.9 °C 7.9 °C 1012.8 hPa Calm     100% 0 mm 0 W/m2
01:39 7.8 °C 7.8 °C 1012.8 hPa Calm     100% 0 mm 0 W/m2
01:44 7.7 °C 7.7 °C 1012.8 hPa Calm     100% 0 mm 0 W/m2
01:49 7.7 °C 7.7 °C 1012.8 hPa Calm     100% 0 mm 0 W/m2
01:54 7.6 °C 7.6 °C 1012.8 hPa Calm     100% 0 mm 0 W/m2
01:59 7.5 °C 7.5 °C 1012.8 hPa Calm     100% 0 mm 0 W/m2
02:04 7.4 °C 7.4 °C 1012.8 hPa Calm     100% 0 mm 0 W/m2
02:09 7.4 °C 7.4 °C 1012.8 hPa Calm     100% 0 mm 0 W/m2
02:14 7.3 °C 7.3 °C 1012.8 hPa Calm     100% 0 mm 0 W/m2
02:19 7.2 °C 7.2 °C 1012.8 hPa Calm     100% 0 mm 0 W/m2
02:24 7.2 °C 7.2 °C 1012.8 hPa Calm     100% 0 mm 0 W/m2
02:29 7.1 °C 7.1 °C 1012.8 hPa Calm     100% 0 mm 0 W/m2
02:34 7.1 °C 7.1 °C 1012.8 hPa Calm     100% 0 mm 0 W/m2
02:39 7.1 °C 7.1 °C 1012.8 hPa Calm     100% 0 mm 0 W/m2
02:44 7 °C 7 °C 1012.8 hPa Calm     100% 0 mm 0 W/m2
02:49 6.9 °C 6.9 °C 1012.8 hPa Calm     100% 0 mm 0 W/m2
02:54 6.9 °C 6.9 °C 1012.8 hPa Calm     100% 0 mm 0 W/m2
02:59 6.8 °C 6.8 °C 1012.8 hPa Calm     100% 0 mm 0 W/m2
03:04 6.8 °C 6.8 °C 1012.8 hPa Calm     100% 0 mm 0 W/m2
03:09 6.7 °C 6.7 °C 1012.8 hPa Calm     100% 0 mm 0 W/m2
03:14 6.6 °C 6.6 °C 1013.1 hPa Calm     100% 0 mm 0 W/m2
03:19 6.6 °C 6.6 °C 1013.1 hPa Calm     100% 0 mm 0 W/m2
03:24 6.6 °C 6.6 °C 1013.1 hPa Calm     100% 0 mm 0 W/m2
03:29 6.6 °C 6.6 °C 1013.1 hPa Calm     100% 0 mm 0 W/m2
03:34 6.6 °C 6.6 °C 1013.1 hPa Calm     100% 0 mm 0 W/m2
03:39 6.6 °C 6.6 °C 1013.1 hPa Calm     100% 0 mm 0 W/m2
03:44 6.6 °C 6.6 °C 1013.1 hPa Calm     100% 0 mm 0 W/m2
03:49 6.6 °C 6.6 °C 1013.1 hPa Calm     100% 0 mm 0 W/m2
03:54 6.6 °C 6.6 °C 1013.1 hPa Calm     100% 0 mm 0 W/m2
03:59 6.5 °C 6.5 °C 1013.1 hPa Calm     100% 0 mm 0 W/m2
04:04 6.4 °C 6.4 °C 1013.1 hPa Calm     100% 0 mm 0 W/m2
04:09 6.4 °C 6.4 °C 1013.1 hPa Calm     100% 0 mm 0 W/m2
04:14 6.3 °C 6.3 °C 1013.1 hPa Calm     100% 0 mm 0 W/m2
04:19 6.3 °C 6.3 °C 1013.1 hPa Calm     100% 0 mm 0 W/m2
04:24 6.2 °C 6.2 °C 1013.1 hPa Calm     100% 0 mm 0 W/m2
04:29 6.2 °C 6.2 °C 1013.1 hPa Calm     100% 0 mm 0 W/m2
04:34 6.2 °C 6.2 °C 1013.1 hPa Calm     100% 0 mm 0 W/m2
04:39 6.2 °C 6.2 °C 1013.1 hPa Calm     100% 0 mm 0 W/m2
04:44 6.2 °C 6.2 °C 1013.1 hPa Calm     100% 0 mm 0 W/m2
04:49 6.2 °C 6.2 °C 1013.1 hPa Calm     100% 0 mm 0 W/m2
04:54 6.2 °C 6.2 °C 1013.1 hPa Calm     100% 0 mm 0 W/m2
04:59 6.2 °C 6.2 °C 1013.1 hPa Calm     100% 0 mm 0 W/m2
05:04 6.2 °C 6.2 °C 1013.1 hPa Calm     100% 0 mm 0 W/m2
05:09 6.2 °C 6.2 °C 1013.1 hPa Calm     100% 0 mm 0 W/m2
05:14 6.2 °C 6.2 °C 1013.1 hPa Calm     100% 0 mm 0 W/m2
05:19 6.2 °C 6.2 °C 1013.1 hPa Calm     100% 0 mm 0 W/m2
05:24 6.2 °C 6.2 °C 1013.1 hPa NNE 0.2 km/h 1.6 km/h 100% 0 mm 0 W/m2
05:29 6.3 °C 6.3 °C 1013.1 hPa ENE 1.9 km/h 3.2 km/h 100% 0 mm 0 W/m2
05:34 6.3 °C 6.3 °C 1013.1 hPa ENE 1.3 km/h 3.2 km/h 100% 0 mm 0 W/m2
05:39 6.3 °C 6.3 °C 1013.1 hPa ENE 0.5 km/h 3.2 km/h 100% 0 mm 0 W/m2
05:44 6.2 °C 6.2 °C 1013.1 hPa Calm   1.6 km/h 100% 0 mm 0 W/m2
05:49 6.2 °C 6.2 °C 1013.1 hPa ENE 0.2 km/h 1.6 km/h 100% 0 mm 0 W/m2
05:54 6.2 °C 6.2 °C 1013.1 hPa NE 1.1 km/h 3.2 km/h 100% 0 mm 0 W/m2
05:59 6.2 °C 6.2 °C 1013.4 hPa NE 1.1 km/h 3.2 km/h 100% 0 mm 0 W/m2
06:04 6.1 °C 6.1 °C 1013.4 hPa NE 0.2 km/h 1.6 km/h 100% 0 mm 0 W/m2
06:09 6 °C 6 °C 1013.4 hPa Calm     100% 0 mm 0 W/m2
06:14 6 °C 6 °C 1013.4 hPa Calm     100% 0 mm 0 W/m2
06:19 5.9 °C 5.9 °C 1013.4 hPa Calm     100% 0 mm 0 W/m2
06:24 6 °C 6 °C 1013.4 hPa Calm     100% 0 mm 0 W/m2
06:29 6 °C 6 °C 1013.8 hPa Calm     100% 0 mm 0 W/m2
06:34 6 °C 6 °C 1013.8 hPa Calm     100% 0 mm 0 W/m2
06:39 6 °C 6 °C 1013.8 hPa Calm     100% 0 mm 0 W/m2
06:44 6 °C 6 °C 1013.8 hPa Calm     100% 0 mm 0 W/m2
06:49 6 °C 6 °C 1013.4 hPa Calm     100% 0 mm 0 W/m2
06:54 6 °C 6 °C 1013.4 hPa Calm     100% 0 mm 0 W/m2
06:59 6.1 °C 6.1 °C 1013.4 hPa Calm     100% 0 mm 0 W/m2
07:04 6.1 °C 6.1 °C 1013.4 hPa Calm     100% 0 mm 0 W/m2
07:09 6.1 °C 6.1 °C 1013.4 hPa NE 1.4 km/h 3.2 km/h 100% 0 mm 5 W/m2
07:14 6.2 °C 6.2 °C 1013.8 hPa NE 0.5 km/h 3.2 km/h 100% 0 mm 7 W/m2
07:19 6.2 °C 6.2 °C 1013.8 hPa NE 0.6 km/h 3.2 km/h 100% 0 mm 5 W/m2
07:24 6.2 °C 6.2 °C 1013.8 hPa NE 1.4 km/h 3.2 km/h 100% 0 mm 7 W/m2
07:29 6.2 °C 6.2 °C 1013.8 hPa NE 1.3 km/h 4.8 km/h 100% 0 mm 12 W/m2
07:34 6.2 °C 6.2 °C 1013.8 hPa NE 1.3 km/h 4.8 km/h 100% 0 mm 12 W/m2
07:39 6.2 °C 6.2 °C 1013.8 hPa ENE 1.8 km/h 4.8 km/h 100% 0 mm 18 W/m2
07:44 6.2 °C 6.2 °C 1013.8 hPa ENE 1.9 km/h 4.8 km/h 100% 0 mm 33 W/m2
07:49 6.2 °C 6.2 °C 1013.4 hPa ENE 1.1 km/h 3.2 km/h 100% 0 mm 37 W/m2
07:54 6.2 °C 6.2 °C 1013.4 hPa ENE 0.8 km/h 1.6 km/h 100% 0 mm 39 W/m2
07:59 6.3 °C 6.3 °C 1013.8 hPa ENE 1 km/h 1.6 km/h 100% 0 mm 30 W/m2
08:04 6.3 °C 6.3 °C 1013.8 hPa ENE 0.2 km/h 1.6 km/h 100% 0 mm 19 W/m2
08:09 6.4 °C 6.4 °C 1013.8 hPa ENE 0.8 km/h 3.2 km/h 100% 0 mm 16 W/m2
08:14 6.4 °C 6.4 °C 1014.1 hPa Calm   1.6 km/h 100% 0 mm 18 W/m2
08:19 6.4 °C 6.4 °C 1014.1 hPa Calm   1.6 km/h 100% 0 mm 25 W/m2
08:24 6.4 °C 6.4 °C 1014.1 hPa Calm     100% 0 mm 25 W/m2
08:29 6.4 °C 6.4 °C 1014.1 hPa Calm     100% 0 mm 39 W/m2
08:34 6.6 °C 6.6 °C 1014.1 hPa Calm     100% 0 mm 56 W/m2
08:39 6.7 °C 6.7 °C 1014.1 hPa ENE 0.2 km/h 1.6 km/h 100% 0 mm 60 W/m2
08:44 6.8 °C 6.8 °C 1014.1 hPa ENE 0.3 km/h 1.6 km/h 100% 0 mm 49 W/m2
08:49 6.9 °C 6.9 °C 1014.1 hPa Calm   1.6 km/h 100% 0 mm 49 W/m2
08:54 7 °C 7 °C 1014.1 hPa Calm   1.6 km/h 100% 0 mm 39 W/m2
08:59 7.1 °C 7.1 °C 1014.1 hPa ENE 0.5 km/h 1.6 km/h 100% 0 mm 60 W/m2
09:04 7.2 °C 7.2 °C 1014.1 hPa ENE 0.3 km/h 3.2 km/h 100% 0 mm 70 W/m2
09:09 7.3 °C 7.3 °C 1014.1 hPa ENE 0.2 km/h 1.6 km/h 100% 0 mm 70 W/m2
09:14 7.4 °C 7.4 °C 1014.1 hPa ENE 0.6 km/h 3.2 km/h 100% 0 mm 84 W/m2
09:19 7.6 °C 7.6 °C 1014.1 hPa ENE 1.3 km/h 3.2 km/h 100% 0 mm 132 W/m2
09:24 7.7 °C 7.7 °C 1014.1 hPa ENE 0.2 km/h 1.6 km/h 100% 0 mm 104 W/m2
09:29 7.8 °C 7.8 °C 1014.1 hPa ENE 0.5 km/h 1.6 km/h 100% 0 mm 93 W/m2
09:34 7.9 °C 7.9 °C 1013.8 hPa ENE 1.3 km/h 3.2 km/h 100% 0 mm 90 W/m2
09:39 8.1 °C 8.1 °C 1013.8 hPa ENE 1.4 km/h 3.2 km/h 100% 0 mm 83 W/m2
09:44 8.2 °C 8.2 °C 1013.8 hPa ENE 2.9 km/h 3.2 km/h 100% 0 mm 60 W/m2
09:49 8.3 °C 8.3 °C 1013.8 hPa NE 1.1 km/h 3.2 km/h 100% 0 mm 155 W/m2
09:54 8.4 °C 8.4 °C 1013.8 hPa ENE 1.8 km/h 3.2 km/h 100% 0 mm 179 W/m2
09:59 8.7 °C 8.7 °C 1013.8 hPa ENE 1.8 km/h 3.2 km/h 100% 0 mm 304 W/m2
10:04 9 °C 9 °C 1013.4 hPa ENE 2.1 km/h 3.2 km/h 100% 0 mm 230 W/m2
10:09 9.2 °C 9.2 °C 1013.4 hPa ENE 1.1 km/h 3.2 km/h 100% 0 mm 315 W/m2
10:14 9.5 °C 9.5 °C 1013.4 hPa ENE 1.6 km/h 3.2 km/h 100% 0 mm 301 W/m2
10:19 9.8 °C 9.8 °C 1013.1 hPa ENE 0.5 km/h 3.2 km/h 100% 0 mm 385 W/m2
10:24 10.1 °C 10.1 °C 1013.1 hPa East 0.3 km/h 3.2 km/h 100% 0 mm 405 W/m2
10:29 10.4 °C 10.4 °C 1013.1 hPa SSW 1 km/h 3.2 km/h 100% 0 mm 389 W/m2
10:34 10.8 °C 10.8 °C 1013.1 hPa SSW 3.1 km/h 6.4 km/h 100% 0 mm 493 W/m2
10:39 11.2 °C 11.1 °C 1013.1 hPa SSW 2.6 km/h 8 km/h 99.4% 0 mm 493 W/m2
10:44 11.6 °C 11.2 °C 1013.1 hPa SSW 2.3 km/h 8 km/h 97.5% 0 mm 584 W/m2
10:49 12.1 °C 11.4 °C 1012.8 hPa SSW 3.1 km/h 6.4 km/h 95.5% 0 mm 584 W/m2
10:54 12.4 °C 11.4 °C 1012.8 hPa SSW 1.8 km/h 4.8 km/h 93.9% 0 mm 320 W/m2
10:59 12.7 °C 11.4 °C 1012.8 hPa SSW 1.9 km/h 4.8 km/h 92.3% 0 mm 262 W/m2
11:04 12.8 °C 11.3 °C 1012.8 hPa SW 2.9 km/h 8 km/h 90.4% 0 mm 255 W/m2
11:09 13 °C 11.4 °C 1012.8 hPa SW 1.4 km/h 4.8 km/h 89.8% 0 mm 255 W/m2
11:14 13.2 °C 11.3 °C 1013.1 hPa SW 3.9 km/h 8 km/h 87.8% 0 mm 179 W/m2
11:19 13.3 °C 11.2 °C 1013.1 hPa SW 1.3 km/h 8 km/h 86.8% 0 mm 100 W/m2
11:24 13.4 °C 11.2 °C 1013.1 hPa SW 2.4 km/h 8 km/h 86.3% 0 mm 72 W/m2
11:29 13.4 °C 11.3 °C 1013.1 hPa SW 0.3 km/h 8 km/h 86.6% 0 mm 74 W/m2
11:34 13.6 °C 11.4 °C 1013.1 hPa SW 0.3 km/h 3.2 km/h 87% 0 mm 95 W/m2
11:39 13.6 °C 11.5 °C 1013.1 hPa SW 1 km/h 4.8 km/h 87% 0 mm 99 W/m2
11:44 13.7 °C 11.6 °C 1013.1 hPa SSW 0.2 km/h 1.6 km/h 87.6% 0 mm 77 W/m2
11:49 13.7 °C 11.8 °C 1013.1 hPa Calm   1.6 km/h 88% 0 mm 63 W/m2
11:54 13.7 °C 11.9 °C 1013.1 hPa Calm     88.6% 0 mm 90 W/m2
11:59 13.7 °C 11.9 °C 1013.1 hPa Calm     89% 0 mm 95 W/m2
12:04 13.8 °C 12.3 °C 1013.1 hPa ENE 0.8 km/h 3.2 km/h 90.3% 0.25 mm 90 W/m2
12:09 13.9 °C 12.6 °C 1013.1 hPa ENE 1.9 km/h 3.2 km/h 91.6% 0.25 mm 113 W/m2
12:14 13.8 °C 12.6 °C 1013.1 hPa NE 0.6 km/h 3.2 km/h 92% 0.25 mm 132 W/m2
12:19 13.8 °C 12.7 °C 1012.1 hPa NNE 0.3 km/h 1.6 km/h 92.9% 0.25 mm 139 W/m2
12:24 13.8 °C 12.8 °C 1012.1 hPa Calm   1.6 km/h 93.8% 0.25 mm 127 W/m2
12:29 13.9 °C 13.1 °C 1012.1 hPa Calm     95% 0.25 mm 137 W/m2
12:34 13.9 °C 13.3 °C 1011.7 hPa Calm     96% 0.25 mm 134 W/m2
12:39 14.1 °C 13.5 °C 1011.7 hPa Calm   1.6 km/h 96.4% 0.25 mm 155 W/m2
12:44 14.2 °C 13.7 °C 1011.7 hPa NW 0.6 km/h 3.2 km/h 97% 0.25 mm 155 W/m2
12:49 14.2 °C 13.8 °C 1011.7 hPa Calm   1.6 km/h 97% 0.25 mm 102 W/m2
12:54 14.3 °C 13.8 °C 1011.7 hPa SW 0.2 km/h 1.6 km/h 97% 0.25 mm 70 W/m2
12:59 14.3 °C 13.9 °C 1011.7 hPa SW 0.6 km/h 3.2 km/h 97% 0.25 mm 76 W/m2
13:04 14.2 °C 13.8 °C 1011.7 hPa NW 0.2 km/h 3.2 km/h 97% 0.25 mm 76 W/m2
13:09 14.2 °C 13.8 °C 1011.7 hPa NW 0.2 km/h 1.6 km/h 97% 0.25 mm 77 W/m2
13:14 14.2 °C 13.8 °C 1011.7 hPa Calm     97% 0.25 mm 56 W/m2
13:19 14.2 °C 13.8 °C 1011.7 hPa Calm   1.6 km/h 97.2% 0.25 mm 53 W/m2
13:24 14.2 °C 13.9 °C 1011.7 hPa Calm   1.6 km/h 98% 0.51 mm 44 W/m2
13:29 14.2 °C 13.9 °C 1011.7 hPa Calm     98% 0.76 mm 35 W/m2
13:34 14.2 °C 13.9 °C 1011.7 hPa Calm     98% 0.76 mm 44 W/m2
13:39 14.2 °C 13.9 °C 1011.7 hPa SW 1.8 km/h 6.4 km/h 98.4% 0.76 mm 44 W/m2
13:44 14.2 °C 14 °C 1012.4 hPa Calm   3.2 km/h 99% 1.02 mm 37 W/m2
13:49 14.1 °C 13.9 °C 1012.4 hPa SW 0.6 km/h 3.2 km/h 99% 1.02 mm 25 W/m2
13:54 14 °C 13.9 °C 1012.4 hPa South 0.2 km/h 3.2 km/h 99% 1.27 mm 76 W/m2
13:59 14 °C 13.8 °C 1012.4 hPa South 1 km/h 3.2 km/h 99% 1.52 mm 97 W/m2
14:04 13.9 °C 13.8 °C 1012.1 hPa SW 0.5 km/h 3.2 km/h 99.2% 1.52 mm 99 W/m2
14:09 13.9 °C 13.9 °C 1012.1 hPa Calm     100% 1.52 mm 84 W/m2
14:14 13.9 °C 13.9 °C 1012.4 hPa Calm     100% 1.78 mm 35 W/m2
14:19 13.9 °C 13.9 °C 1012.4 hPa Calm   1.6 km/h 100% 1.78 mm 25 W/m2
14:24 13.9 °C 13.9 °C 1012.4 hPa Calm   1.6 km/h 100% 1.78 mm 55 W/m2
14:29 13.8 °C 13.8 °C 1012.4 hPa Calm     100% 1.78 mm 56 W/m2
14:34 13.9 °C 13.9 °C 1012.4 hPa Calm     100% 1.78 mm 35 W/m2
14:39 13.9 °C 13.9 °C 1012.4 hPa Calm     100% 1.27 mm 48 W/m2
14:44 13.9 °C 13.9 °C 1012.4 hPa SW 0.2 km/h 1.6 km/h 100% 1.27 mm 55 W/m2
14:49 13.9 °C 13.9 °C 1011.7 hPa Calm   1.6 km/h 100% 1.27 mm 77 W/m2
14:54 14 °C 14 °C 1011.7 hPa Calm     100% 1.27 mm 93 W/m2
14:59 14.1 °C 14.1 °C 1011.7 hPa Calm     100% 1.02 mm 118 W/m2
15:04 14.2 °C 14.2 °C 1011.1 hPa South 1 km/h 1.6 km/h 100% 1.02 mm 102 W/m2
15:09 14.2 °C 14.2 °C 1011.1 hPa Calm   1.6 km/h 100% 0.51 mm 125 W/m2
15:14 14.3 °C 14.3 °C 1011.1 hPa East 1 km/h 3.2 km/h 100% 0.51 mm 113 W/m2
15:19 14.4 °C 14.4 °C 1010.7 hPa ENE 1.1 km/h 3.2 km/h 100% 0.51 mm 113 W/m2
15:24 14.5 °C 14.5 °C 1010.7 hPa Calm   1.6 km/h 100% 0.51 mm 95 W/m2
15:29 14.4 °C 14.4 °C 1010.7 hPa East 1.1 km/h 3.2 km/h 100% 0.25 mm 100 W/m2
15:34 14.2 °C 14.2 °C 1010.7 hPa Calm   1.6 km/h 100% 0.25 mm 104 W/m2
15:39 14.3 °C 14.3 °C 1010.7 hPa Calm     100% 0.25 mm 104 W/m2
15:44 14.4 °C 14.4 °C 1010.7 hPa Calm   1.6 km/h 100% 0.25 mm 106 W/m2
15:49 14.4 °C 14.4 °C 1010 hPa East 0.3 km/h 1.6 km/h 100% 0.25 mm 106 W/m2
15:54 14.5 °C 14.5 °C 1010 hPa ENE 1.3 km/h 3.2 km/h 100% 0.25 mm 104 W/m2
15:59 14.6 °C 14.6 °C 1010 hPa ENE 0.2 km/h 1.6 km/h 100% 0.25 mm 83 W/m2
16:04 14.7 °C 14.7 °C 1009.7 hPa ENE 1.3 km/h 3.2 km/h 100% 0.25 mm 65 W/m2
16:09 14.6 °C 14.6 °C 1009.7 hPa ENE 0.2 km/h 1.6 km/h 100% 0.25 mm 60 W/m2
16:14 14.6 °C 14.6 °C 1010 hPa Calm     100% 0.25 mm 60 W/m2
16:19 14.6 °C 14.6 °C 1010 hPa Calm     100% 0.25 mm 58 W/m2
16:24 14.7 °C 14.7 °C 1010 hPa Calm     100% 0.25 mm 49 W/m2
16:29 14.7 °C 14.7 °C 1010 hPa Calm   1.6 km/h 100% 0.25 mm 42 W/m2
16:34 14.8 °C 14.8 °C 1010 hPa SSE 0.2 km/h 1.6 km/h 100% 0.25 mm 42 W/m2
16:39 14.8 °C 14.8 °C 1010 hPa SSE 0.2 km/h 1.6 km/h 100% 0.25 mm 42 W/m2
16:44 14.7 °C 14.7 °C 1010 hPa SSE 0.2 km/h 1.6 km/h 100% 0.25 mm 44 W/m2
16:49 14.7 °C 14.7 °C 1010 hPa SSE 0.2 km/h 1.6 km/h 100% 0 mm 53 W/m2
16:54 14.7 °C 14.7 °C 1010 hPa Calm     100% 0 mm 48 W/m2
16:59 14.7 °C 14.7 °C 1010 hPa Calm     100% 0 mm 44 W/m2
17:04 14.7 °C 14.7 °C 1010 hPa Calm     100% 0 mm 40 W/m2
17:09 14.7 °C 14.7 °C 1010 hPa Calm     100% 0 mm 18 W/m2
17:14 14.7 °C 14.7 °C 1010 hPa Calm     100% 0 mm 11 W/m2
17:19 14.6 °C 14.6 °C 1009.7 hPa Calm     100% 0 mm 7 W/m2
17:24 14.6 °C 14.6 °C 1009.7 hPa Calm     100% 0 mm 5 W/m2
17:29 14.6 °C 14.6 °C 1009.7 hPa Calm     100% 0 mm 5 W/m2
17:34 14.6 °C 14.6 °C 1009.7 hPa Calm     100% 0 mm 5 W/m2
17:39 14.5 °C 14.5 °C 1009.7 hPa Calm     100% 0 mm 5 W/m2
17:44 14.4 °C 14.4 °C 1009.7 hPa Calm     100% 0 mm 5 W/m2
17:49 14.4 °C 14.4 °C 1009.7 hPa Calm     100% 0 mm 0 W/m2
17:54 14.4 °C 14.4 °C 1009.7 hPa Calm     100% 0 mm 0 W/m2
17:59 14.3 °C 14.3 °C 1009.7 hPa Calm     100% 0 mm 0 W/m2
18:04 14.2 °C 14.2 °C 1009.7 hPa Calm     100% 0 mm 0 W/m2
18:09 14.2 °C 14.2 °C 1009.7 hPa Calm     100% 0 mm 0 W/m2
18:14 14 °C 14 °C 1009.7 hPa Calm     100% 0 mm 0 W/m2
18:19 13.8 °C 13.8 °C 1009.7 hPa Calm     100% 0 mm 0 W/m2
18:24 13.7 °C 13.7 °C 1009.7 hPa Calm     100% 0 mm 0 W/m2
18:29 13.6 °C 13.6 °C 1009.7 hPa Calm   1.6 km/h 100% 0 mm 0 W/m2
18:34 13.3 °C 13.3 °C 1009.4 hPa Calm     100% 0 mm 0 W/m2
18:39 13.3 °C 13.3 °C 1009.4 hPa Calm     100% 0 mm 0 W/m2
18:44 13.2 °C 13.2 °C 1009.4 hPa Calm     100% 0 mm 0 W/m2
18:49 13.1 °C 13.1 °C 1009.4 hPa Calm     100% 0 mm 0 W/m2
18:54 13.1 °C 13.1 °C 1009.4 hPa Calm     100% 0 mm 0 W/m2
18:59 13 °C 13 °C 1009.4 hPa Calm     100% 0 mm 0 W/m2
19:04 13 °C 13 °C 1009.4 hPa Calm     100% 0 mm 0 W/m2
19:09 13 °C 13 °C 1009.4 hPa Calm     100% 0 mm 0 W/m2
19:14 12.9 °C 12.9 °C 1009.4 hPa Calm     100% 0 mm 0 W/m2
19:19 12.9 °C 12.9 °C 1009.4 hPa Calm     100% 0 mm 0 W/m2
19:24 12.9 °C 12.9 °C 1009.4 hPa Calm     100% 0 mm 0 W/m2
19:29 12.9 °C 12.9 °C 1009.4 hPa Calm     100% 0 mm 0 W/m2
19:34 12.9 °C 12.9 °C 1009.4 hPa Calm     100% 0 mm 0 W/m2
19:39 12.9 °C 12.9 °C 1009.4 hPa Calm     100% 0 mm 0 W/m2
19:44 12.9 °C 12.9 °C 1009.4 hPa Calm     100% 0 mm 0 W/m2
19:49 12.9 °C 12.9 °C 1009.4 hPa Calm     100% 0 mm 0 W/m2
19:54 12.8 °C 12.8 °C 1009.4 hPa Calm     100% 0 mm 0 W/m2
19:59 12.9 °C 12.9 °C 1009.4 hPa Calm     100% 0 mm 0 W/m2
20:04 12.9 °C 12.9 °C 1009 hPa Calm     100% 0 mm 0 W/m2
20:09 12.9 °C 12.9 °C 1009 hPa Calm     100% 0 mm 0 W/m2
20:14 13 °C 13 °C 1009 hPa Calm     100% 0 mm 0 W/m2
20:19 13 °C 13 °C 1008.7 hPa Calm     100% 0 mm 0 W/m2
20:24 13 °C 13 °C 1008.7 hPa Calm     100% 0 mm 0 W/m2
20:29 12.9 °C 12.9 °C 1008.7 hPa ESE 0.2 km/h 1.6 km/h 100% 0 mm 0 W/m2
20:34 12.9 °C 12.9 °C 1008.4 hPa East 0.5 km/h 3.2 km/h 100% 0 mm 0 W/m2
20:39 12.9 °C 12.9 °C 1008.4 hPa East 0.8 km/h 3.2 km/h 100% 0 mm 0 W/m2
20:40 12.8 °C 12.8 °C 1008.4 hPa ENE 0.6 km/h 3.2 km/h 100% 0 mm 0 W/m2
Lisbon, New Hampshire, USA
Compliments of Weather Underground - 3.75 mb